KBMIKUGN

Guest
Details From KBMI - Central Illinois Rgnl
To KUGN - WAUKEGAN RGNL
Flight Number -
Tags decoded
Created
Modified
Stats Distance 126 nm / 233 km
Max Altitude 0 ft / 0 m
Waypoints 3
Social Downloads 1
Likes 0
Share

Download

Looking for another format? Having issues loading an existing format? Contact us
Advertisement - Login to hide

Notes

Requested: KBMI LEEDN DETIE KUGN Unmatched points: DETIE

Route

KBMI LEEDN KUGN

ID Type Via Altitude (ft/m) Position (lat/lon) Dist (leg/tot) Name
O KBMI APT - 0 / 0 40.47858 / -88.92043 - / 0 nm Central Illinois Rgnl
LEEDN FIX - 0 / 0 41.71316 / -88.31635 79 / 79 nm
O KUGN APT - 0 / 0 42.42240 / -87.86811 47 / 126 nm WAUKEGAN RGNL

Altitude Profile

Advertisement - Login to hide

KBMI

Details ICAO KBMI (BMI)
Name Central Illinois Rgnl
Region United States
Timezone America/Chicago (UTC-5.0)
Stats Elevation 871 ft / 265 m (AMSL)
Location 40.477300° -88.916400°
Runways 2
Magnetic Variation 2.933° W

METAR

KBMI 280756Z AUTO 25005KT 10SM BKN038 OVC080 03/02 A3014 RMK AO2 SLP209 T00330022

Decode

TAF

TAF KBMI 280520Z 2806/2906 24003KT P6SM BKN007 TEMPO 2806/2809 SCT007 BKN080 FM280900 25005KT P6SM BKN100

Decode

Departure Runways

ID Width Length Bearing (true/mag) Surface Threshold Overrun Markings Lighting
02 151 ft / 46 m 8,034 ft / 2,449 m 17.89° / 20.82° CONCRETE 0 ft / 0 m 200 ft / 61 m PREC-APP CENTERLINE EDGE THRESHOLD MALSF
11 151 ft / 46 m 6,538 ft / 1,993 m 107.93° / 110.86° CONCRETE 0 ft / 0 m 0 ft / 0 m PREC-APP CENTERLINE EDGE THRESHOLD MALSF
20 151 ft / 46 m 8,034 ft / 2,449 m 197.90° / 200.83° CONCRETE 0 ft / 0 m 200 ft / 61 m APP CENTERLINE EDGE THRESHOLD MALSF
29 151 ft / 46 m 6,538 ft / 1,993 m 287.95° / 290.88° CONCRETE 151 ft / 46 m 148 ft / 45 m APP CENTERLINE EDGE THRESHOLD MALSF

KUGN

Details ICAO KUGN (UGN)
Name WAUKEGAN RGNL
Region United States
Timezone America/Chicago (UTC-5.0)
Stats Elevation 727 ft / 222 m (AMSL)
Location 42.422400° -87.868100°
Runways 2
Magnetic Variation 3.996° W

METAR

KUGN 280755Z AUTO 24008KT 10SM CLR M01/M04 A3008 RMK AO2 SLP198 T10111044

Decode

TAF

Not found

Destination Runways

ID Width Length Bearing (true/mag) Surface Threshold Overrun Markings Lighting
05 150 ft / 46 m 5,994 ft / 1,827 m 48.35° / 52.34° ASPHALT 0 ft / 0 m 0 ft / 0 m APP EDGE THRESHOLD
14 75 ft / 23 m 3,751 ft / 1,143 m 144.30° / 148.29° ASPHALT 499 ft / 152 m 0 ft / 0 m APP EDGE THRESHOLD
23 150 ft / 46 m 5,994 ft / 1,827 m 228.36° / 232.35° ASPHALT 0 ft / 0 m 0 ft / 0 m PREC-APP EDGE THRESHOLD MALSR
32 75 ft / 23 m 3,751 ft / 1,143 m 324.30° / 328.30° ASPHALT 0 ft / 0 m 0 ft / 0 m APP EDGE THRESHOLD

Approach Navaids

Runway Type Ident Frequency Range Bearing (true/mag) Slope Elevation
23 GS IUGN 110.70 MHz 10 nm / 19 km 228.70° / 232.70 ° 3.00° 716 ft / 218 m (AMSL)
23 OM OM - - 228.35° / 232.35 ° - 727 ft / 222 m (AMSL)
23 LOC-ILS IUGN 110.70 MHz 18 nm / 33 km 228.35° / 232.35 ° - 727 ft / 222 m (AMSL)
23 MM MM - - 228.35° / 232.35 ° - 727 ft / 222 m (AMSL)